createdAt,value
2018-06-13T00:00:21.890Z,949.25
2018-06-13T00:01:21.883Z,949.22
2018-06-13T00:02:21.875Z,949.24
2018-06-13T00:03:21.868Z,949.24
2018-06-13T00:04:21.863Z,949.2
2018-06-13T00:05:21.856Z,949.24
2018-06-13T00:06:21.847Z,949.21
2018-06-13T00:07:21.843Z,949.23
2018-06-13T00:08:21.834Z,949.21
2018-06-13T00:09:21.828Z,949.22
2018-06-13T00:10:21.821Z,949.18
2018-06-13T00:11:21.815Z,949.21
2018-06-13T00:12:21.808Z,949.2
2018-06-13T00:13:21.799Z,949.19
2018-06-13T00:14:21.793Z,949.18
2018-06-13T00:15:21.785Z,949.19
2018-06-13T00:16:21.852Z,949.17
2018-06-13T00:17:21.772Z,949.15
2018-06-13T00:18:21.817Z,949.19
2018-06-13T00:19:21.760Z,949.2
2018-06-13T00:20:21.753Z,949.19
2018-06-13T00:21:21.744Z,949.17
2018-06-13T00:22:21.737Z,949.16
2018-06-13T00:23:21.730Z,949.19
2018-06-13T00:24:21.726Z,949.16
2018-06-13T00:25:21.718Z,949.15
2018-06-13T00:26:21.712Z,949.11
2018-06-13T00:27:21.705Z,949.11
2018-06-13T00:28:21.696Z,949.15
2018-06-13T00:29:21.688Z,949.11
2018-06-13T00:30:21.683Z,949.11
2018-06-13T00:31:21.676Z,949.09
2018-06-13T00:32:21.669Z,949.08
2018-06-13T00:33:21.661Z,949.04
2018-06-13T00:34:21.654Z,949.01
2018-06-13T00:35:21.645Z,948.99
2018-06-13T00:36:21.640Z,948.98
2018-06-13T00:37:21.632Z,948.97
2018-06-13T00:38:21.626Z,948.97
2018-06-13T00:39:21.619Z,948.95
2018-06-13T00:40:21.612Z,948.99
2018-06-13T00:41:21.604Z,948.98
2018-06-13T00:42:21.602Z,948.96
2018-06-13T00:43:21.593Z,948.99
2018-06-13T00:44:21.584Z,948.97
2018-06-13T00:45:21.575Z,948.96
2018-06-13T00:46:21.570Z,948.94
2018-06-13T00:47:21.563Z,948.98
2018-06-13T00:48:21.555Z,948.96
2018-06-13T00:49:21.553Z,948.95
2018-06-13T00:50:21.540Z,948.94
2018-06-13T00:51:21.535Z,948.94
2018-06-13T00:52:21.531Z,948.91
2018-06-13T00:53:21.522Z,948.94
2018-06-13T00:54:21.512Z,948.88
2018-06-13T00:55:21.506Z,948.86
2018-06-13T00:56:21.499Z,948.88
2018-06-13T00:57:21.492Z,948.88
2018-06-13T00:58:21.485Z,948.87
2018-06-13T00:59:21.483Z,948.85
2018-06-13T01:00:21.470Z,948.85
2018-06-13T01:01:21.463Z,948.86
2018-06-13T01:02:21.456Z,948.86
2018-06-13T01:03:21.451Z,948.84
2018-06-13T01:04:21.444Z,948.81
2018-06-13T01:05:21.436Z,948.86
2018-06-13T01:06:21.429Z,948.84
2018-06-13T01:07:21.422Z,948.82
2018-06-13T01:08:21.417Z,948.83
2018-06-13T01:09:21.408Z,948.81
2018-06-13T01:10:21.402Z,948.81
2018-06-13T01:11:21.394Z,948.76
2018-06-13T01:12:21.387Z,948.78
2018-06-13T01:13:21.380Z,948.77
2018-06-13T01:14:21.374Z,948.8
2018-06-13T01:15:21.367Z,948.78
2018-06-13T01:16:21.362Z,948.8
2018-06-13T01:17:21.354Z,948.77
2018-06-13T01:18:21.347Z,948.74
2018-06-13T01:19:21.339Z,948.73
2018-06-13T01:20:21.334Z,948.73
2018-06-13T01:21:21.326Z,948.7
2018-06-13T01:22:21.322Z,948.69
2018-06-13T01:23:21.311Z,948.65
2018-06-13T01:24:21.304Z,948.63
2018-06-13T01:25:21.298Z,948.61
2018-06-13T01:26:21.290Z,948.62
2018-06-13T01:27:21.282Z,948.59
2018-06-13T01:28:21.276Z,948.57
2018-06-13T01:29:21.334Z,948.61
2018-06-13T01:30:21.263Z,948.6
2018-06-13T01:31:21.253Z,948.61
2018-06-13T01:32:21.248Z,948.59
2018-06-13T01:33:21.241Z,948.6
2018-06-13T01:34:21.233Z,948.58
2018-06-13T01:35:21.226Z,948.55
2018-06-13T01:36:21.220Z,948.59
2018-06-13T01:37:21.212Z,948.59
2018-06-13T01:38:21.205Z,948.57
2018-06-13T01:39:21.199Z,948.59
2018-06-13T01:40:21.193Z,948.58
2018-06-13T01:41:21.185Z,948.57
2018-06-13T01:42:21.177Z,948.57
2018-06-13T01:43:21.171Z,948.63
2018-06-13T01:44:21.164Z,948.62
2018-06-13T01:45:21.156Z,948.67
2018-06-13T01:46:21.149Z,948.67
2018-06-13T01:47:21.142Z,948.69
2018-06-13T01:48:21.133Z,948.68
2018-06-13T01:49:21.171Z,948.66
2018-06-13T01:50:21.118Z,948.64
2018-06-13T01:51:21.112Z,948.64
2018-06-13T01:52:21.105Z,948.64
2018-06-13T01:53:21.096Z,948.67
2018-06-13T01:54:21.090Z,948.67
2018-06-13T01:55:21.081Z,948.67
2018-06-13T01:56:21.073Z,948.65
2018-06-13T01:57:21.065Z,948.68
2018-06-13T01:58:21.058Z,948.68
2018-06-13T01:59:21.052Z,948.68
2018-06-13T02:00:21.044Z,948.66
2018-06-13T02:01:21.037Z,948.66
2018-06-13T02:02:21.030Z,948.64
2018-06-13T02:03:21.020Z,948.63
2018-06-13T02:04:21.015Z,948.65
2018-06-13T02:05:21.007Z,948.63
2018-06-13T02:06:20.998Z,948.61
2018-06-13T02:07:20.992Z,948.58
2018-06-13T02:08:20.991Z,948.62
2018-06-13T02:09:20.978Z,948.57
2018-06-13T02:10:20.969Z,948.61
2018-06-13T02:11:20.960Z,948.61
2018-06-13T02:12:20.955Z,948.59
2018-06-13T02:13:20.950Z,948.61
2018-06-13T02:14:20.938Z,948.57
2018-06-13T02:15:20.934Z,948.62
2018-06-13T02:16:20.924Z,948.61
2018-06-13T02:17:20.916Z,948.62
2018-06-13T02:18:20.908Z,948.66
2018-06-13T02:19:20.900Z,948.62
2018-06-13T02:20:20.892Z,948.65
2018-06-13T02:21:20.885Z,948.66
2018-06-13T02:22:20.877Z,948.64
2018-06-13T02:23:20.873Z,948.66
2018-06-13T02:24:20.862Z,948.68
2018-06-13T02:25:20.854Z,948.67
2018-06-13T02:26:20.849Z,948.7
2018-06-13T02:27:20.861Z,948.7
2018-06-13T02:28:20.832Z,948.66
2018-06-13T02:29:20.827Z,948.68
2018-06-13T02:30:20.818Z,948.69
2018-06-13T02:31:20.811Z,948.7
2018-06-13T02:32:20.805Z,948.7
2018-06-13T02:33:20.798Z,948.7
2018-06-13T02:34:20.786Z,948.71
2018-06-13T02:35:20.780Z,948.67
2018-06-13T02:36:20.769Z,948.71
2018-06-13T02:37:20.762Z,948.71
2018-06-13T02:38:20.755Z,948.7
2018-06-13T02:39:20.748Z,948.67
2018-06-13T02:40:20.739Z,948.7
2018-06-13T02:41:20.734Z,948.74
2018-06-13T02:42:20.725Z,948.7
2018-06-13T02:43:20.716Z,948.7
2018-06-13T02:44:20.708Z,948.67
2018-06-13T02:45:20.700Z,948.68
2018-06-13T02:46:20.696Z,948.69
2018-06-13T02:47:20.684Z,948.64
2018-06-13T02:48:20.677Z,948.6
2018-06-13T02:49:20.669Z,948.64
2018-06-13T02:50:20.664Z,948.61
2018-06-13T02:51:20.653Z,948.63
2018-06-13T02:52:20.647Z,948.65
2018-06-13T02:53:20.648Z,948.68
2018-06-13T02:54:20.632Z,948.72
2018-06-13T02:55:20.623Z,948.68
2018-06-13T02:56:20.616Z,948.7
2018-06-13T02:57:20.607Z,948.69
2018-06-13T02:58:20.603Z,948.69
2018-06-13T02:59:20.592Z,948.68
2018-06-13T03:00:20.584Z,948.68
2018-06-13T03:01:20.579Z,948.66
2018-06-13T03:02:20.569Z,948.65
2018-06-13T03:03:20.561Z,948.67
2018-06-13T03:04:20.554Z,948.65
2018-06-13T03:05:20.545Z,948.67
2018-06-13T03:06:20.536Z,948.66
2018-06-13T03:07:20.530Z,948.69
2018-06-13T03:08:20.522Z,948.68
2018-06-13T03:09:20.518Z,948.69
2018-06-13T03:10:20.507Z,948.68
2018-06-13T03:11:20.497Z,948.68
2018-06-13T03:12:20.488Z,948.68
2018-06-13T03:13:20.482Z,948.68
2018-06-13T03:14:20.474Z,948.65
2018-06-13T03:15:20.466Z,948.68
2018-06-13T03:16:20.461Z,948.68
2018-06-13T03:17:20.450Z,948.71
2018-06-13T03:18:20.442Z,948.73
2018-06-13T03:19:20.442Z,948.72
2018-06-13T03:20:20.424Z,948.75
2018-06-13T03:21:20.422Z,948.75
2018-06-13T03:22:20.409Z,948.74
2018-06-13T03:23:20.401Z,948.75
2018-06-13T03:24:20.396Z,948.72
2018-06-13T03:25:20.385Z,948.75
2018-06-13T03:26:20.380Z,948.79
2018-06-13T03:27:20.374Z,948.79
2018-06-13T03:28:20.362Z,948.85
2018-06-13T03:29:20.359Z,948.85
2018-06-13T03:30:20.347Z,948.84
2018-06-13T03:31:20.339Z,948.88
2018-06-13T03:32:20.329Z,948.87
2018-06-13T03:33:20.322Z,948.86
2018-06-13T03:34:20.313Z,948.92
2018-06-13T03:35:20.305Z,948.92
2018-06-13T03:36:20.298Z,948.89
2018-06-13T03:37:20.288Z,948.94
2018-06-13T03:38:20.281Z,948.95
2018-06-13T03:39:20.273Z,948.97
2018-06-13T03:40:20.265Z,948.97
2018-06-13T03:41:20.258Z,949.01
2018-06-13T03:42:20.250Z,949
2018-06-13T03:43:20.241Z,949.01
2018-06-13T03:44:20.277Z,949.02
2018-06-13T03:45:20.224Z,949
2018-06-13T03:46:20.222Z,949
2018-06-13T03:47:20.209Z,949.02
2018-06-13T03:48:20.205Z,949.04
2018-06-13T03:49:20.191Z,949.07
2018-06-13T03:50:20.191Z,949.09
2018-06-13T03:51:20.176Z,949.11
2018-06-13T03:52:20.168Z,949.19
2018-06-13T03:53:20.159Z,949.18
2018-06-13T03:54:20.152Z,949.19
2018-06-13T03:55:20.143Z,949.2
2018-06-13T03:56:20.136Z,949.23
2018-06-13T03:57:20.130Z,949.24
2018-06-13T03:58:20.121Z,949.25
2018-06-13T03:59:20.111Z,949.24
2018-06-13T04:00:20.103Z,949.25
2018-06-13T04:01:20.095Z,949.25
2018-06-13T04:02:20.086Z,949.23
2018-06-13T04:03:20.079Z,949.28
2018-06-13T04:04:20.070Z,949.32
2018-06-13T04:05:20.061Z,949.35
2018-06-13T04:06:20.055Z,949.39
2018-06-13T04:07:20.045Z,949.4
2018-06-13T04:08:20.037Z,949.44
2018-06-13T04:09:20.030Z,949.46
2018-06-13T04:10:20.023Z,949.47
2018-06-13T04:11:20.021Z,949.46
2018-06-13T04:12:20.006Z,949.46
2018-06-13T04:13:19.997Z,949.49
2018-06-13T04:14:19.989Z,949.39
2018-06-13T04:15:19.982Z,949.41
2018-06-13T04:16:19.972Z,949.42
2018-06-13T04:17:19.965Z,949.43
2018-06-13T04:18:19.956Z,949.44
2018-06-13T04:19:19.951Z,949.46
2018-06-13T04:20:19.941Z,949.45
2018-06-13T04:21:19.933Z,949.47
2018-06-13T04:22:19.978Z,949.46
2018-06-13T04:23:19.914Z,949.51
2018-06-13T04:24:19.908Z,949.49
2018-06-13T04:25:19.903Z,949.5
2018-06-13T04:26:19.893Z,949.52
2018-06-13T04:27:19.885Z,949.54
2018-06-13T04:28:19.877Z,949.54
2018-06-13T04:29:19.867Z,949.5
2018-06-13T04:30:19.925Z,949.51
2018-06-13T04:31:19.852Z,949.51
2018-06-13T04:32:19.843Z,949.53
2018-06-13T04:33:19.835Z,949.49
2018-06-13T04:34:19.829Z,949.53
2018-06-13T04:35:19.820Z,949.49
2018-06-13T04:36:19.809Z,949.54
2018-06-13T04:37:19.801Z,949.54
2018-06-13T04:38:19.795Z,949.53
2018-06-13T04:39:19.787Z,949.5
2018-06-13T04:40:19.778Z,949.48
2018-06-13T04:41:19.771Z,949.44
2018-06-13T04:42:19.762Z,949.47
2018-06-13T04:43:19.762Z,949.46
2018-06-13T04:44:19.745Z,949.47
2018-06-13T04:45:19.736Z,949.47
2018-06-13T04:46:19.730Z,949.5
2018-06-13T04:47:19.724Z,949.5
2018-06-13T04:48:19.713Z,949.49
2018-06-13T04:49:19.705Z,949.48
2018-06-13T04:50:19.698Z,949.46
2018-06-13T04:51:19.690Z,949.44
2018-06-13T04:52:19.681Z,949.47
2018-06-13T04:53:19.672Z,949.44
2018-06-13T04:54:19.666Z,949.46
2018-06-13T04:55:19.657Z,949.45
2018-06-13T04:56:19.652Z,949.43
2018-06-13T04:57:19.641Z,949.46
2018-06-13T04:58:19.637Z,949.45
2018-06-13T04:59:19.623Z,949.47
2018-06-13T05:00:19.616Z,949.52
2018-06-13T05:01:19.607Z,949.53
2018-06-13T05:02:19.598Z,949.52
2018-06-13T05:03:19.592Z,949.53
2018-06-13T05:04:19.587Z,949.51
2018-06-13T05:05:19.576Z,949.52
2018-06-13T05:06:19.566Z,949.47
2018-06-13T05:07:19.558Z,949.44
2018-06-13T05:08:19.552Z,949.44
2018-06-13T05:09:19.541Z,949.44
2018-06-13T05:10:19.532Z,949.4
2018-06-13T05:11:19.526Z,949.44
2018-06-13T05:12:19.517Z,949.41
2018-06-13T05:13:19.508Z,949.44
2018-06-13T05:14:19.501Z,949.45
2018-06-13T05:15:19.492Z,949.48
2018-06-13T05:16:19.492Z,949.43
2018-06-13T05:17:19.476Z,949.38
2018-06-13T05:18:19.467Z,949.34
2018-06-13T05:19:19.460Z,949.36
2018-06-13T05:20:19.451Z,949.31
2018-06-13T05:21:19.450Z,949.32
2018-06-13T05:22:19.435Z,949.3
2018-06-13T05:23:19.428Z,949.34
2018-06-13T05:24:19.420Z,949.32
2018-06-13T05:25:19.411Z,949.33
2018-06-13T05:26:19.404Z,949.35
2018-06-13T05:27:19.400Z,949.33
2018-06-13T05:28:19.388Z,949.36
2018-06-13T05:29:19.380Z,949.36
2018-06-13T05:30:19.372Z,949.39
2018-06-13T05:31:19.364Z,949.37
2018-06-13T05:32:19.356Z,949.39
2018-06-13T05:33:19.348Z,949.4
2018-06-13T05:34:19.341Z,949.42
2018-06-13T05:35:19.332Z,949.39
2018-06-13T05:36:19.325Z,949.42
2018-06-13T05:37:19.318Z,949.45
2018-06-13T05:38:19.311Z,949.44
2018-06-13T05:39:19.301Z,949.45
2018-06-13T05:40:19.297Z,949.44
2018-06-13T05:41:19.287Z,949.47
2018-06-13T05:42:19.279Z,949.47
2018-06-13T05:43:19.272Z,949.46
2018-06-13T05:44:19.270Z,949.49
2018-06-13T05:45:19.256Z,949.48
2018-06-13T05:46:19.252Z,949.48
2018-06-13T05:47:19.240Z,949.48
2018-06-13T05:48:19.232Z,949.48
2018-06-13T05:49:19.226Z,949.51
2018-06-13T05:50:19.218Z,949.48
2018-06-13T05:51:19.210Z,949.53
2018-06-13T05:52:19.202Z,949.51
2018-06-13T05:53:19.194Z,949.53
2018-06-13T05:54:19.191Z,949.55
2018-06-13T05:55:19.178Z,949.56
2018-06-13T05:56:19.171Z,949.58
2018-06-13T05:57:19.164Z,949.59
2018-06-13T05:58:19.155Z,949.59
2018-06-13T05:59:19.147Z,949.56
2018-06-13T06:00:19.140Z,949.61
2018-06-13T06:01:19.137Z,949.6
2018-06-13T06:02:19.133Z,949.59
2018-06-13T06:03:19.119Z,949.65
2018-06-13T06:04:19.109Z,949.63
2018-06-13T06:05:19.102Z,949.66
2018-06-13T06:06:19.094Z,949.63
2018-06-13T06:07:19.087Z,949.62
2018-06-13T06:08:19.079Z,949.6
2018-06-13T06:09:19.070Z,949.6
2018-06-13T06:10:19.144Z,949.57
2018-06-13T06:11:19.054Z,949.56
2018-06-13T06:12:19.048Z,949.55
2018-06-13T06:13:19.040Z,949.54
2018-06-13T06:14:19.034Z,949.56
2018-06-13T06:15:19.025Z,949.55
2018-06-13T06:16:19.019Z,949.54
2018-06-13T06:17:19.012Z,949.59
2018-06-13T06:18:19.008Z,949.61
2018-06-13T06:19:18.996Z,949.56
2018-06-13T06:20:18.990Z,949.58
2018-06-13T06:21:18.981Z,949.62
2018-06-13T06:22:18.973Z,949.61
2018-06-13T06:23:18.966Z,949.62
2018-06-13T06:24:18.959Z,949.62
2018-06-13T06:25:18.950Z,949.66
2018-06-13T06:26:18.943Z,949.64
2018-06-13T06:27:18.941Z,949.7
2018-06-13T06:28:18.930Z,949.66
2018-06-13T06:29:18.923Z,949.68
2018-06-13T06:30:18.915Z,949.67
2018-06-13T06:31:18.908Z,949.64
2018-06-13T06:32:18.901Z,949.65
2018-06-13T06:33:18.892Z,949.61
2018-06-13T06:34:18.884Z,949.64
2018-06-13T06:35:18.878Z,949.65
2018-06-13T06:36:18.873Z,949.67
2018-06-13T06:37:18.863Z,949.69
2018-06-13T06:38:18.855Z,949.74
2018-06-13T06:39:18.850Z,949.7
2018-06-13T06:40:18.842Z,949.68
2018-06-13T06:41:18.834Z,949.7
2018-06-13T06:42:18.827Z,949.7
2018-06-13T06:43:18.820Z,949.72
2018-06-13T06:44:18.817Z,949.7
2018-06-13T06:45:18.804Z,949.71
2018-06-13T06:46:18.798Z,949.77
2018-06-13T06:47:18.794Z,949.74
2018-06-13T06:48:18.783Z,949.77
2018-06-13T06:49:18.777Z,949.8
2018-06-13T06:50:18.772Z,949.75
2018-06-13T06:51:18.761Z,949.72
2018-06-13T06:52:18.754Z,949.75
2018-06-13T06:53:18.754Z,949.72
2018-06-13T06:54:18.740Z,949.72
2018-06-13T06:55:18.732Z,949.68
2018-06-13T06:56:18.729Z,949.7
2018-06-13T06:57:18.719Z,949.73
2018-06-13T06:58:18.710Z,949.69
2018-06-13T06:59:18.703Z,949.72
2018-06-13T07:00:18.697Z,949.7
2018-06-13T07:01:18.688Z,949.64
2018-06-13T07:02:18.682Z,949.66
2018-06-13T07:03:18.673Z,949.73
2018-06-13T07:04:18.666Z,949.72
2018-06-13T07:05:18.660Z,949.72
2018-06-13T07:06:18.652Z,949.78
2018-06-13T07:07:18.644Z,949.73
2018-06-13T07:08:18.637Z,949.78
2018-06-13T07:09:18.633Z,949.76
2018-06-13T07:10:18.622Z,949.77
2018-06-13T07:11:18.615Z,949.76
2018-06-13T07:12:18.613Z,949.77
2018-06-13T07:13:18.601Z,949.78
2018-06-13T07:14:18.592Z,949.81
2018-06-13T07:15:18.585Z,949.76
2018-06-13T07:16:18.578Z,949.81
2018-06-13T07:17:18.571Z,949.82
2018-06-13T07:18:18.564Z,949.82
2018-06-13T07:19:18.557Z,949.76
2018-06-13T07:20:18.550Z,949.8
2018-06-13T07:21:18.542Z,949.78
2018-06-13T07:22:18.535Z,949.8
2018-06-13T07:23:18.528Z,949.78
2018-06-13T07:24:18.526Z,949.77
2018-06-13T07:25:18.515Z,949.79
2018-06-13T07:26:18.508Z,949.77
2018-06-13T07:27:18.500Z,949.75
2018-06-13T07:28:18.492Z,949.78
2018-06-13T07:29:18.484Z,949.8
2018-06-13T07:30:18.479Z,949.81
2018-06-13T07:31:18.474Z,949.8
2018-06-13T07:32:18.463Z,949.8
2018-06-13T07:33:18.458Z,949.8
2018-06-13T07:34:18.449Z,949.78
2018-06-13T07:35:18.443Z,949.81
2018-06-13T07:36:18.437Z,949.81
2018-06-13T07:37:18.431Z,949.85
2018-06-13T07:38:18.425Z,949.86
2018-06-13T07:39:18.418Z,949.9
2018-06-13T07:40:18.412Z,949.86
2018-06-13T07:41:18.411Z,949.86
2018-06-13T07:42:18.397Z,949.87
2018-06-13T07:43:18.392Z,949.86
2018-06-13T07:44:18.385Z,949.86
2018-06-13T07:45:18.379Z,949.88
2018-06-13T07:46:18.372Z,949.87
2018-06-13T07:47:18.367Z,949.84
2018-06-13T07:48:18.362Z,949.85
2018-06-13T07:49:18.354Z,949.83
2018-06-13T07:50:18.346Z,949.83
2018-06-13T07:51:18.340Z,949.85
2018-06-13T07:52:18.335Z,949.85
2018-06-13T07:53:18.327Z,949.89
2018-06-13T07:54:18.325Z,949.93
2018-06-13T07:55:18.316Z,949.9
2018-06-13T07:56:18.308Z,949.97
2018-06-13T07:57:18.302Z,949.97
2018-06-13T07:58:18.297Z,949.96
2018-06-13T07:59:18.289Z,949.99
2018-06-13T08:00:18.283Z,949.98
2018-06-13T08:01:18.275Z,950
2018-06-13T08:02:18.304Z,949.97
2018-06-13T08:03:18.263Z,949.97
2018-06-13T08:04:18.256Z,949.99
2018-06-13T08:05:18.250Z,950
2018-06-13T08:06:18.244Z,949.95
2018-06-13T08:07:18.237Z,950
2018-06-13T08:08:18.292Z,950
2018-06-13T08:09:18.223Z,950.02
2018-06-13T08:10:18.215Z,950.04
2018-06-13T08:11:18.209Z,950.05
2018-06-13T08:12:18.202Z,950.07
2018-06-13T08:13:18.196Z,950.1
2018-06-13T08:14:18.189Z,950.1
2018-06-13T08:15:18.183Z,950.08
2018-06-13T08:16:18.175Z,950.09
2018-06-13T08:17:18.169Z,950.08
2018-06-13T08:18:18.162Z,950.08
2018-06-13T08:19:18.155Z,950.09
2018-06-13T08:20:18.149Z,950.12
2018-06-13T08:21:18.141Z,950.12
2018-06-13T08:22:18.134Z,950.07
2018-06-13T08:23:18.127Z,950.07
2018-06-13T08:24:18.121Z,950.11
2018-06-13T08:25:18.114Z,950.08
2018-06-13T08:26:18.110Z,950.08
2018-06-13T08:27:18.099Z,950.08
2018-06-13T08:28:18.092Z,950.15
2018-06-13T08:29:18.085Z,950.14
2018-06-13T08:30:18.083Z,950.16
2018-06-13T08:31:18.071Z,950.16
2018-06-13T08:32:18.071Z,950.2
2018-06-13T08:33:18.060Z,950.21
2018-06-13T08:34:18.052Z,950.23
2018-06-13T08:35:18.044Z,950.3
2018-06-13T08:36:18.038Z,950.3
2018-06-13T08:37:18.031Z,950.34
2018-06-13T08:38:18.024Z,950.37
2018-06-13T08:39:18.017Z,950.35
2018-06-13T08:40:18.010Z,950.34
2018-06-13T08:41:18.000Z,950.35
2018-06-13T08:42:17.996Z,950.36
2018-06-13T08:43:17.988Z,950.36
2018-06-13T08:44:17.982Z,950.37
2018-06-13T08:45:17.976Z,950.35
2018-06-13T08:46:17.967Z,950.36
2018-06-13T08:47:17.960Z,950.35
2018-06-13T08:48:17.953Z,950.35
2018-06-13T08:49:17.945Z,950.33
2018-06-13T08:50:17.944Z,950.36
2018-06-13T08:51:17.931Z,950.31
2018-06-13T08:52:17.926Z,950.35
2018-06-13T08:53:17.915Z,950.38
2018-06-13T08:54:17.908Z,950.4
2018-06-13T08:55:17.902Z,950.41
2018-06-13T08:56:17.894Z,950.43
2018-06-13T08:57:17.885Z,950.43
2018-06-13T08:58:17.879Z,950.4
2018-06-13T08:59:17.871Z,950.42
2018-06-13T09:00:17.866Z,950.45
2018-06-13T09:01:17.856Z,950.41
2018-06-13T09:02:17.849Z,950.43
2018-06-13T09:03:17.896Z,950.46
2018-06-13T09:04:17.833Z,950.45
2018-06-13T09:05:17.827Z,950.44
2018-06-13T09:06:17.832Z,950.5
2018-06-13T09:07:17.810Z,950.49
2018-06-13T09:08:17.804Z,950.52
2018-06-13T09:09:17.796Z,950.49
2018-06-13T09:10:17.789Z,950.52
2018-06-13T09:11:17.782Z,950.47
2018-06-13T09:12:17.775Z,950.5
2018-06-13T09:13:17.768Z,950.56
2018-06-13T09:14:17.760Z,950.51
2018-06-13T09:15:17.753Z,950.5
2018-06-13T09:16:17.745Z,950.47
2018-06-13T09:17:17.737Z,950.5
2018-06-13T09:18:17.737Z,950.47
2018-06-13T09:19:17.722Z,950.54
2018-06-13T09:20:17.715Z,950.51
2018-06-13T09:21:17.706Z,950.55
2018-06-13T09:22:17.714Z,950.54
2018-06-13T09:23:17.692Z,950.53
2018-06-13T09:24:17.684Z,950.53
2018-06-13T09:25:17.676Z,950.53
2018-06-13T09:26:17.670Z,950.52
2018-06-13T09:27:17.662Z,950.55
2018-06-13T09:28:17.656Z,950.59
2018-06-13T09:29:17.649Z,950.58
2018-06-13T09:30:17.646Z,950.59
2018-06-13T09:31:17.668Z,950.57
2018-06-13T09:32:17.628Z,950.59
2018-06-13T09:33:17.618Z,950.57
2018-06-13T09:34:17.612Z,950.57
2018-06-13T09:35:17.607Z,950.57
2018-06-13T09:36:17.597Z,950.6
2018-06-13T09:37:17.603Z,950.58
2018-06-13T09:38:17.583Z,950.55
2018-06-13T09:39:17.577Z,950.55
2018-06-13T09:40:17.568Z,950.59
2018-06-13T09:41:17.562Z,950.6
2018-06-13T09:42:17.567Z,950.56
2018-06-13T09:43:17.549Z,950.58
2018-06-13T09:44:17.548Z,950.57
2018-06-13T09:45:17.537Z,950.55
2018-06-13T09:46:17.531Z,950.62
2018-06-13T09:47:23.457Z,950.62
2018-06-13T09:48:17.517Z,950.57
2018-06-13T09:49:17.518Z,950.61
2018-06-13T09:50:17.506Z,950.56
2018-06-13T09:51:17.498Z,950.63
2018-06-13T09:52:17.495Z,950.62
2018-06-13T09:53:17.486Z,950.63
2018-06-13T09:54:17.484Z,950.65
2018-06-13T09:55:17.475Z,950.64
2018-06-13T09:56:17.469Z,950.65
2018-06-13T09:57:17.463Z,950.65
2018-06-13T09:58:17.455Z,950.62
2018-06-13T09:59:17.449Z,950.62
2018-06-13T10:00:17.443Z,950.63
2018-06-13T10:01:17.437Z,950.63
2018-06-13T10:02:17.430Z,950.63
2018-06-13T10:03:17.424Z,950.65
2018-06-13T10:04:17.418Z,950.65
2018-06-13T10:05:17.410Z,950.65
2018-06-13T10:06:17.404Z,950.64
2018-06-13T10:07:17.406Z,950.64
2018-06-13T10:08:17.393Z,950.61
2018-06-13T10:09:17.384Z,950.62
2018-06-13T10:10:17.378Z,950.65
2018-06-13T10:11:17.430Z,950.65
2018-06-13T10:12:17.366Z,950.68
2018-06-13T10:13:17.359Z,950.66
2018-06-13T10:14:17.353Z,950.7
2018-06-13T10:15:17.345Z,950.7
2018-06-13T10:16:17.339Z,950.68
2018-06-13T10:17:17.333Z,950.74
2018-06-13T10:18:17.325Z,950.69
2018-06-13T10:19:17.319Z,950.72
2018-06-13T10:20:17.312Z,950.76
2018-06-13T10:21:17.304Z,950.77
2018-06-13T10:22:17.376Z,950.71
2018-06-13T10:23:17.295Z,950.79
2018-06-13T10:24:17.286Z,950.77
2018-06-13T10:25:17.278Z,950.74
2018-06-13T10:26:17.272Z,950.75
2018-06-13T10:27:17.264Z,950.81
2018-06-13T10:28:17.257Z,950.8
2018-06-13T10:29:17.249Z,950.78
2018-06-13T10:30:17.244Z,950.76
2018-06-13T10:31:17.235Z,950.75
2018-06-13T10:32:17.229Z,950.74
2018-06-13T10:33:17.229Z,950.8
2018-06-13T10:34:17.274Z,950.76
2018-06-13T10:35:17.211Z,950.76
2018-06-13T10:36:17.210Z,950.73
2018-06-13T10:37:17.198Z,950.74
2018-06-13T10:38:17.191Z,950.73
2018-06-13T10:39:17.185Z,950.72
2018-06-13T10:40:17.181Z,950.72
2018-06-13T10:41:17.174Z,950.73
2018-06-13T10:42:17.168Z,950.72
2018-06-13T10:43:17.161Z,950.7
2018-06-13T10:44:17.155Z,950.72
2018-06-13T10:45:17.150Z,950.7
2018-06-13T10:46:17.143Z,950.69
2018-06-13T10:47:17.138Z,950.68
2018-06-13T10:48:17.132Z,950.68
2018-06-13T10:49:17.124Z,950.66
2018-06-13T10:50:17.120Z,950.68
2018-06-13T10:51:17.117Z,950.72
2018-06-13T10:52:17.108Z,950.69
2018-06-13T10:53:17.101Z,950.65
2018-06-13T10:54:17.096Z,950.7
2018-06-13T10:55:17.091Z,950.65
2018-06-13T10:56:17.084Z,950.64
2018-06-13T10:57:17.079Z,950.64
2018-06-13T10:58:17.074Z,950.68
2018-06-13T10:59:17.068Z,950.68
2018-06-13T11:00:17.061Z,950.69
2018-06-13T11:01:17.058Z,950.72
2018-06-13T11:02:17.052Z,950.71
2018-06-13T11:03:17.050Z,950.72
2018-06-13T11:04:17.041Z,950.75
2018-06-13T11:05:17.037Z,950.79
2018-06-13T11:06:17.034Z,950.77
2018-06-13T11:07:17.028Z,950.77
2018-06-13T11:08:17.023Z,950.75
2018-06-13T11:09:17.019Z,950.77
2018-06-13T11:10:17.016Z,950.76
2018-06-13T11:11:17.011Z,950.76
2018-06-13T11:12:17.008Z,950.75
2018-06-13T11:13:17.002Z,950.72
2018-06-13T11:14:16.998Z,950.75
2018-06-13T11:15:16.994Z,950.73
2018-06-13T11:16:16.990Z,950.7
2018-06-13T11:17:16.985Z,950.7
2018-06-13T11:18:16.982Z,950.7
2018-06-13T11:19:16.977Z,950.77
2018-06-13T11:20:16.977Z,950.68
2018-06-13T11:21:16.969Z,950.73
2018-06-13T11:22:16.963Z,950.71
2018-06-13T11:23:16.960Z,950.71
2018-06-13T11:24:16.957Z,950.71
2018-06-13T11:25:16.952Z,950.71
2018-06-13T11:26:16.948Z,950.69
2018-06-13T11:27:16.944Z,950.68
2018-06-13T11:28:16.940Z,950.64
2018-06-13T11:29:16.934Z,950.62
2018-06-13T11:30:16.931Z,950.64
2018-06-13T11:31:16.927Z,950.67
2018-06-13T11:32:16.923Z,950.64
2018-06-13T11:33:16.919Z,950.72
2018-06-13T11:34:16.914Z,950.73
2018-06-13T11:35:16.910Z,950.78
2018-06-13T11:36:16.905Z,950.78
2018-06-13T11:37:16.899Z,950.8
2018-06-13T11:38:16.896Z,950.79
2018-06-13T11:39:16.892Z,950.8
2018-06-13T11:40:16.886Z,950.82
2018-06-13T11:41:16.881Z,950.84
2018-06-13T11:42:16.878Z,950.84
2018-06-13T11:43:16.909Z,950.84
2018-06-13T11:44:16.868Z,950.84
2018-06-13T11:45:16.863Z,950.79
2018-06-13T11:46:16.861Z,950.8
2018-06-13T11:47:16.861Z,950.83
2018-06-13T11:48:16.852Z,950.82
2018-06-13T11:49:16.847Z,950.75
2018-06-13T11:50:16.846Z,950.74
2018-06-13T11:51:16.839Z,950.75
2018-06-13T11:52:16.835Z,950.73
2018-06-13T11:53:16.834Z,950.75
2018-06-13T11:54:16.828Z,950.72
2018-06-13T11:55:16.822Z,950.71
2018-06-13T11:56:16.819Z,950.74
2018-06-13T11:57:16.818Z,950.75
2018-06-13T11:58:16.812Z,950.72
2018-06-13T11:59:16.808Z,950.74
2018-06-13T12:00:16.850Z,950.74
2018-06-13T12:01:16.801Z,950.67
2018-06-13T12:02:16.795Z,950.71
2018-06-13T12:03:16.794Z,950.69
2018-06-13T12:04:16.789Z,950.66
2018-06-13T12:05:16.786Z,950.66
2018-06-13T12:06:16.783Z,950.63
2018-06-13T12:07:16.779Z,950.59
2018-06-13T12:08:16.779Z,950.59
2018-06-13T12:09:16.775Z,950.56
2018-06-13T12:10:16.767Z,950.54
2018-06-13T12:11:16.773Z,950.54
2018-06-13T12:12:16.763Z,950.56
2018-06-13T12:13:16.758Z,950.55
2018-06-13T12:14:16.757Z,950.54
2018-06-13T12:15:16.751Z,950.58
2018-06-13T12:16:16.749Z,950.57
2018-06-13T12:17:16.752Z,950.59
2018-06-13T12:18:16.740Z,950.62
2018-06-13T12:19:16.736Z,950.61
2018-06-13T12:20:16.734Z,950.61
2018-06-13T12:21:16.729Z,950.62
2018-06-13T12:22:16.728Z,950.62
2018-06-13T12:23:16.721Z,950.63
2018-06-13T12:24:16.718Z,950.66
2018-06-13T12:25:16.713Z,950.66
2018-06-13T12:26:16.711Z,950.69
2018-06-13T12:27:16.705Z,950.77
2018-06-13T12:28:16.700Z,950.76
2018-06-13T12:29:16.700Z,950.77
2018-06-13T12:30:16.693Z,950.77
2018-06-13T12:31:16.684Z,950.81